sensor_id;sensor_type;location;lat;lon;timestamp;pressure;altitude;pressure_sealevel;temperature;humidity
61908;BME280;47864;52.526;19.672;2023-04-19T00:00:38;101441.44;;;7.77;100.00
61908;BME280;47864;52.526;19.672;2023-04-19T00:02:39;101445.56;;;7.81;100.00
61908;BME280;47864;52.526;19.672;2023-04-19T00:04:43;101435.44;;;7.75;100.00
61908;BME280;47864;52.526;19.672;2023-04-19T00:06:45;101447.88;;;7.86;100.00
61908;BME280;47864;52.526;19.672;2023-04-19T00:08:46;101445.78;;;7.78;100.00
61908;BME280;47864;52.526;19.672;2023-04-19T00:10:48;101430.50;;;7.47;100.00
61908;BME280;47864;52.526;19.672;2023-04-19T00:12:49;101441.88;;;7.47;100.00
61908;BME280;47864;52.526;19.672;2023-04-19T00:14:51;101431.06;;;7.63;100.00
61908;BME280;47864;52.526;19.672;2023-04-19T00:16:52;101442.00;;;7.46;100.00
61908;BME280;47864;52.526;19.672;2023-04-19T00:18:54;101442.28;;;7.54;100.00
61908;BME280;47864;52.526;19.672;2023-04-19T00:20:55;101426.66;;;7.51;100.00
61908;BME280;47864;52.526;19.672;2023-04-19T00:22:57;101426.31;;;7.32;100.00
61908;BME280;47864;52.526;19.672;2023-04-19T00:24:58;101427.47;;;7.28;100.00
61908;BME280;47864;52.526;19.672;2023-04-19T00:27:00;101423.22;;;7.38;100.00
61908;BME280;47864;52.526;19.672;2023-04-19T00:29:01;101430.28;;;7.37;100.00
61908;BME280;47864;52.526;19.672;2023-04-19T00:31:03;101430.94;;;7.28;100.00
61908;BME280;47864;52.526;19.672;2023-04-19T00:33:05;101413.06;;;7.08;100.00
61908;BME280;47864;52.526;19.672;2023-04-19T00:35:06;101429.19;;;7.16;100.00
61908;BME280;47864;52.526;19.672;2023-04-19T00:37:08;101419.41;;;7.05;100.00
61908;BME280;47864;52.526;19.672;2023-04-19T00:39:10;101415.41;;;7.00;100.00
61908;BME280;47864;52.526;19.672;2023-04-19T00:41:11;101421.09;;;6.94;100.00
61908;BME280;47864;52.526;19.672;2023-04-19T00:43:17;101419.53;;;6.91;100.00
61908;BME280;47864;52.526;19.672;2023-04-19T00:45:19;101410.88;;;6.89;100.00
61908;BME280;47864;52.526;19.672;2023-04-19T00:47:20;101412.47;;;6.92;100.00
61908;BME280;47864;52.526;19.672;2023-04-19T00:49:23;101383.78;;;6.62;100.00
61908;BME280;47864;52.526;19.672;2023-04-19T00:51:24;101402.00;;;6.90;100.00
61908;BME280;47864;52.526;19.672;2023-04-19T00:53:26;101396.63;;;6.79;100.00
61908;BME280;47864;52.526;19.672;2023-04-19T00:55:28;101391.56;;;6.76;100.00
61908;BME280;47864;52.526;19.672;2023-04-19T00:57:30;101403.50;;;6.69;100.00
61908;BME280;47864;52.526;19.672;2023-04-19T00:59:33;101400.78;;;6.58;100.00
61908;BME280;47864;52.526;19.672;2023-04-19T01:01:34;101391.91;;;6.59;100.00
61908;BME280;47864;52.526;19.672;2023-04-19T01:03:36;101393.69;;;6.71;100.00
61908;BME280;47864;52.526;19.672;2023-04-19T01:05:38;101376.19;;;6.57;100.00
61908;BME280;47864;52.526;19.672;2023-04-19T01:07:39;101373.66;;;6.56;100.00
61908;BME280;47864;52.526;19.672;2023-04-19T01:09:45;101382.31;;;6.45;100.00
61908;BME280;47864;52.526;19.672;2023-04-19T01:11:46;101375.25;;;6.33;100.00
61908;BME280;47864;52.526;19.672;2023-04-19T01:13:48;101358.16;;;6.38;100.00
61908;BME280;47864;52.526;19.672;2023-04-19T01:15:50;101378.00;;;6.57;100.00
61908;BME280;47864;52.526;19.672;2023-04-19T01:17:51;101383.25;;;6.44;100.00
61908;BME280;47864;52.526;19.672;2023-04-19T01:20:00;101367.88;;;6.51;100.00
61908;BME280;47864;52.526;19.672;2023-04-19T01:22:02;101321.06;;;6.16;100.00
61908;BME280;47864;52.526;19.672;2023-04-19T01:24:04;101378.06;;;6.42;100.00
61908;BME280;47864;52.526;19.672;2023-04-19T01:26:05;101366.19;;;6.24;100.00
61908;BME280;47864;52.526;19.672;2023-04-19T01:28:07;101381.66;;;6.29;100.00
61908;BME280;47864;52.526;19.672;2023-04-19T01:30:08;101377.44;;;6.14;100.00
61908;BME280;47864;52.526;19.672;2023-04-19T01:32:10;101360.78;;;6.13;100.00
61908;BME280;47864;52.526;19.672;2023-04-19T01:34:11;101374.28;;;6.21;100.00
61908;BME280;47864;52.526;19.672;2023-04-19T01:36:13;101367.50;;;6.04;100.00
61908;BME280;47864;52.526;19.672;2023-04-19T01:38:15;101367.75;;;6.14;100.00
61908;BME280;47864;52.526;19.672;2023-04-19T01:40:17;101361.81;;;5.98;100.00
61908;BME280;47864;52.526;19.672;2023-04-19T01:42:18;101358.84;;;5.90;100.00
61908;BME280;47864;52.526;19.672;2023-04-19T01:44:20;101348.97;;;6.06;100.00
61908;BME280;47864;52.526;19.672;2023-04-19T01:46:21;101329.34;;;5.85;100.00
61908;BME280;47864;52.526;19.672;2023-04-19T01:48:23;101358.16;;;6.00;100.00
61908;BME280;47864;52.526;19.672;2023-04-19T01:50:24;101351.72;;;5.92;100.00
61908;BME280;47864;52.526;19.672;2023-04-19T01:52:25;101356.38;;;5.87;100.00
61908;BME280;47864;52.526;19.672;2023-04-19T01:54:27;101345.00;;;5.73;100.00
61908;BME280;47864;52.526;19.672;2023-04-19T01:56:28;101347.56;;;5.88;100.00
61908;BME280;47864;52.526;19.672;2023-04-19T01:58:30;101335.00;;;5.79;100.00
61908;BME280;47864;52.526;19.672;2023-04-19T02:00:31;101344.22;;;5.98;100.00
61908;BME280;47864;52.526;19.672;2023-04-19T02:02:36;101350.88;;;6.04;100.00
61908;BME280;47864;52.526;19.672;2023-04-19T02:04:37;101344.75;;;6.03;100.00
61908;BME280;47864;52.526;19.672;2023-04-19T02:06:39;101344.94;;;5.88;100.00
61908;BME280;47864;52.526;19.672;2023-04-19T02:08:41;101328.97;;;5.77;100.00
61908;BME280;47864;52.526;19.672;2023-04-19T02:10:42;101340.81;;;5.84;100.00
61908;BME280;47864;52.526;19.672;2023-04-19T02:12:44;101340.31;;;5.91;100.00
61908;BME280;47864;52.526;19.672;2023-04-19T02:14:45;101334.25;;;5.77;100.00
61908;BME280;47864;52.526;19.672;2023-04-19T02:16:47;101331.19;;;5.70;100.00
61908;BME280;47864;52.526;19.672;2023-04-19T02:18:49;101342.31;;;5.88;100.00
61908;BME280;47864;52.526;19.672;2023-04-19T02:20:50;101317.69;;;5.62;100.00
61908;BME280;47864;52.526;19.672;2023-04-19T02:22:52;101320.53;;;5.59;100.00
61908;BME280;47864;52.526;19.672;2023-04-19T02:24:53;101323.44;;;5.42;100.00
61908;BME280;47864;52.526;19.672;2023-04-19T02:26:55;101326.50;;;5.48;100.00
61908;BME280;47864;52.526;19.672;2023-04-19T02:28:56;101337.63;;;5.39;100.00
61908;BME280;47864;52.526;19.672;2023-04-19T02:30:58;101340.44;;;5.36;100.00
61908;BME280;47864;52.526;19.672;2023-04-19T02:33:03;101325.56;;;5.22;100.00
61908;BME280;47864;52.526;19.672;2023-04-19T02:35:05;101321.66;;;5.28;100.00
61908;BME280;47864;52.526;19.672;2023-04-19T02:37:07;101330.22;;;5.31;100.00
61908;BME280;47864;52.526;19.672;2023-04-19T02:39:08;101308.88;;;5.36;100.00
61908;BME280;47864;52.526;19.672;2023-04-19T02:41:10;101325.00;;;5.44;100.00
61908;BME280;47864;52.526;19.672;2023-04-19T02:43:11;101319.78;;;5.30;100.00
61908;BME280;47864;52.526;19.672;2023-04-19T02:45:13;101322.41;;;5.30;100.00
61908;BME280;47864;52.526;19.672;2023-04-19T02:47:14;101326.72;;;5.04;100.00
61908;BME280;47864;52.526;19.672;2023-04-19T02:49:17;101301.22;;;4.92;100.00
61908;BME280;47864;52.526;19.672;2023-04-19T02:51:19;101315.19;;;5.07;100.00
61908;BME280;47864;52.526;19.672;2023-04-19T02:53:20;101302.69;;;4.96;100.00
61908;BME280;47864;52.526;19.672;2023-04-19T02:55:24;101293.59;;;5.02;100.00
61908;BME280;47864;52.526;19.672;2023-04-19T02:57:25;101300.34;;;5.06;100.00
61908;BME280;47864;52.526;19.672;2023-04-19T02:59:27;101303.81;;;5.06;100.00
61908;BME280;47864;52.526;19.672;2023-04-19T03:01:28;101291.75;;;5.16;100.00
61908;BME280;47864;52.526;19.672;2023-04-19T03:03:30;101298.16;;;5.12;100.00
61908;BME280;47864;52.526;19.672;2023-04-19T03:05:32;101277.34;;;5.09;100.00
61908;BME280;47864;52.526;19.672;2023-04-19T03:07:36;101282.00;;;5.18;100.00
61908;BME280;47864;52.526;19.672;2023-04-19T03:09:37;101293.41;;;5.31;100.00
61908;BME280;47864;52.526;19.672;2023-04-19T03:11:38;101277.75;;;5.43;100.00
61908;BME280;47864;52.526;19.672;2023-04-19T03:13:40;101285.75;;;5.41;100.00
61908;BME280;47864;52.526;19.672;2023-04-19T03:15:41;101284.81;;;5.55;100.00
61908;BME280;47864;52.526;19.672;2023-04-19T03:17:43;101278.03;;;5.38;100.00
61908;BME280;47864;52.526;19.672;2023-04-19T03:19:44;101284.31;;;5.50;100.00
61908;BME280;47864;52.526;19.672;2023-04-19T03:21:46;101283.22;;;5.52;100.00
61908;BME280;47864;52.526;19.672;2023-04-19T03:23:47;101282.41;;;5.52;100.00
61908;BME280;47864;52.526;19.672;2023-04-19T03:25:49;101275.25;;;5.54;100.00
61908;BME280;47864;52.526;19.672;2023-04-19T03:27:50;101259.69;;;5.63;100.00
61908;BME280;47864;52.526;19.672;2023-04-19T03:29:52;101260.44;;;5.65;100.00
61908;BME280;47864;52.526;19.672;2023-04-19T03:31:53;101275.59;;;5.87;100.00
61908;BME280;47864;52.526;19.672;2023-04-19T03:33:54;101268.00;;;5.70;100.00
61908;BME280;47864;52.526;19.672;2023-04-19T03:35:56;101262.34;;;5.76;100.00
61908;BME280;47864;52.526;19.672;2023-04-19T03:37:57;101264.00;;;5.64;100.00
61908;BME280;47864;52.526;19.672;2023-04-19T03:39:59;101258.31;;;5.58;100.00
61908;BME280;47864;52.526;19.672;2023-04-19T03:42:00;101256.84;;;5.66;100.00
61908;BME280;47864;52.526;19.672;2023-04-19T03:44:02;101217.44;;;5.40;100.00
61908;BME280;47864;52.526;19.672;2023-04-19T03:46:04;101234.50;;;5.47;100.00
61908;BME280;47864;52.526;19.672;2023-04-19T03:48:05;101249.69;;;5.56;100.00
61908;BME280;47864;52.526;19.672;2023-04-19T03:50:07;101230.59;;;5.52;100.00
61908;BME280;47864;52.526;19.672;2023-04-19T03:52:09;101248.22;;;5.64;100.00
61908;BME280;47864;52.526;19.672;2023-04-19T03:54:10;101246.22;;;5.81;100.00
61908;BME280;47864;52.526;19.672;2023-04-19T03:56:12;101236.41;;;5.57;100.00
61908;BME280;47864;52.526;19.672;2023-04-19T03:58:13;101199.13;;;5.38;100.00
61908;BME280;47864;52.526;19.672;2023-04-19T04:00:15;101238.84;;;5.73;100.00
61908;BME280;47864;52.526;19.672;2023-04-19T04:02:17;101227.59;;;5.58;100.00
61908;BME280;47864;52.526;19.672;2023-04-19T04:04:18;101234.44;;;5.73;100.00
61908;BME280;47864;52.526;19.672;2023-04-19T04:06:20;101227.91;;;5.79;100.00
61908;BME280;47864;52.526;19.672;2023-04-19T04:08:22;101214.00;;;5.52;100.00
61908;BME280;47864;52.526;19.672;2023-04-19T04:10:23;101229.16;;;5.73;100.00
61908;BME280;47864;52.526;19.672;2023-04-19T04:12:25;101221.69;;;5.67;100.00
61908;BME280;47864;52.526;19.672;2023-04-19T04:14:26;101223.81;;;5.75;100.00
61908;BME280;47864;52.526;19.672;2023-04-19T04:16:28;101237.81;;;5.76;100.00
61908;BME280;47864;52.526;19.672;2023-04-19T04:18:29;101239.06;;;5.83;100.00
61908;BME280;47864;52.526;19.672;2023-04-19T04:20:31;101235.50;;;5.84;100.00
61908;BME280;47864;52.526;19.672;2023-04-19T04:22:33;101218.31;;;5.78;100.00
61908;BME280;47864;52.526;19.672;2023-04-19T04:24:40;101236.78;;;5.91;100.00
61908;BME280;47864;52.526;19.672;2023-04-19T04:26:42;101231.84;;;5.99;100.00
61908;BME280;47864;52.526;19.672;2023-04-19T04:28:43;101220.66;;;5.83;100.00
61908;BME280;47864;52.526;19.672;2023-04-19T04:30:45;101227.59;;;5.84;100.00
61908;BME280;47864;52.526;19.672;2023-04-19T04:32:46;101213.16;;;5.77;100.00
61908;BME280;47864;52.526;19.672;2023-04-19T04:34:48;101231.44;;;5.92;100.00
61908;BME280;47864;52.526;19.672;2023-04-19T04:36:49;101221.06;;;6.02;100.00
61908;BME280;47864;52.526;19.672;2023-04-19T04:38:51;101215.19;;;6.11;100.00
61908;BME280;47864;52.526;19.672;2023-04-19T04:40:53;101217.94;;;5.97;100.00
61908;BME280;47864;52.526;19.672;2023-04-19T04:42:54;101211.63;;;5.99;100.00
61908;BME280;47864;52.526;19.672;2023-04-19T04:44:56;101210.34;;;6.05;100.00
61908;BME280;47864;52.526;19.672;2023-04-19T04:46:57;101210.34;;;6.18;100.00
61908;BME280;47864;52.526;19.672;2023-04-19T04:48:59;101208.47;;;6.07;100.00
61908;BME280;47864;52.526;19.672;2023-04-19T04:51:00;101203.75;;;6.36;100.00
61908;BME280;47864;52.526;19.672;2023-04-19T04:53:02;101204.78;;;6.46;100.00
61908;BME280;47864;52.526;19.672;2023-04-19T04:55:04;101197.88;;;6.20;100.00
61908;BME280;47864;52.526;19.672;2023-04-19T04:57:05;101177.28;;;6.01;100.00
61908;BME280;47864;52.526;19.672;2023-04-19T04:59:07;101197.63;;;6.48;100.00
61908;BME280;47864;52.526;19.672;2023-04-19T05:01:08;101194.34;;;6.44;100.00
61908;BME280;47864;52.526;19.672;2023-04-19T05:03:10;101193.50;;;6.57;100.00
61908;BME280;47864;52.526;19.672;2023-04-19T05:05:12;101195.38;;;6.55;100.00
61908;BME280;47864;52.526;19.672;2023-04-19T05:07:13;101167.72;;;6.36;100.00
61908;BME280;47864;52.526;19.672;2023-04-19T05:09:15;101179.97;;;6.85;100.00
61908;BME280;47864;52.526;19.672;2023-04-19T05:11:16;101159.16;;;6.69;100.00
61908;BME280;47864;52.526;19.672;2023-04-19T05:13:18;101184.56;;;6.94;100.00
61908;BME280;47864;52.526;19.672;2023-04-19T05:15:19;101175.06;;;6.68;100.00
61908;BME280;47864;52.526;19.672;2023-04-19T05:17:21;101169.88;;;6.55;100.00
61908;BME280;47864;52.526;19.672;2023-04-19T05:19:22;101181.38;;;6.54;100.00
61908;BME280;47864;52.526;19.672;2023-04-19T05:21:24;101163.81;;;6.42;100.00
61908;BME280;47864;52.526;19.672;2023-04-19T05:23:25;101173.50;;;6.41;100.00
61908;BME280;47864;52.526;19.672;2023-04-19T05:25:27;101179.72;;;6.40;100.00
61908;BME280;47864;52.526;19.672;2023-04-19T05:27:29;101120.34;;;6.11;100.00
61908;BME280;47864;52.526;19.672;2023-04-19T05:29:30;101174.13;;;6.45;100.00
61908;BME280;47864;52.526;19.672;2023-04-19T05:31:32;101171.44;;;6.58;100.00
61908;BME280;47864;52.526;19.672;2023-04-19T05:33:33;101173.81;;;6.73;100.00
61908;BME280;47864;52.526;19.672;2023-04-19T05:35:35;101154.81;;;6.44;100.00
61908;BME280;47864;52.526;19.672;2023-04-19T05:37:37;101160.66;;;6.61;100.00
61908;BME280;47864;52.526;19.672;2023-04-19T05:39:39;101158.31;;;6.69;100.00
61908;BME280;47864;52.526;19.672;2023-04-19T05:41:44;101146.53;;;6.62;100.00
61908;BME280;47864;52.526;19.672;2023-04-19T05:43:45;101163.09;;;6.64;100.00
61908;BME280;47864;52.526;19.672;2023-04-19T05:45:48;101171.72;;;6.42;100.00
61908;BME280;47864;52.526;19.672;2023-04-19T05:47:49;101134.34;;;6.24;100.00
61908;BME280;47864;52.526;19.672;2023-04-19T05:49:51;101159.91;;;6.35;100.00
61908;BME280;47864;52.526;19.672;2023-04-19T05:51:52;101158.94;;;6.48;100.00
61908;BME280;47864;52.526;19.672;2023-04-19T05:53:54;101166.44;;;6.42;100.00
61908;BME280;47864;52.526;19.672;2023-04-19T05:55:57;101158.28;;;6.21;100.00
61908;BME280;47864;52.526;19.672;2023-04-19T05:57:59;101147.06;;;6.30;100.00
61908;BME280;47864;52.526;19.672;2023-04-19T06:00:01;101153.50;;;6.26;100.00
61908;BME280;47864;52.526;19.672;2023-04-19T06:02:03;101145.88;;;6.34;100.00
61908;BME280;47864;52.526;19.672;2023-04-19T06:04:05;101149.72;;;6.30;100.00
61908;BME280;47864;52.526;19.672;2023-04-19T06:06:06;101125.81;;;6.21;100.00
61908;BME280;47864;52.526;19.672;2023-04-19T06:08:08;101156.78;;;6.30;100.00
61908;BME280;47864;52.526;19.672;2023-04-19T06:10:10;101129.44;;;6.07;100.00
61908;BME280;47864;52.526;19.672;2023-04-19T06:12:11;101136.81;;;6.15;100.00
61908;BME280;47864;52.526;19.672;2023-04-19T06:14:13;101139.63;;;6.11;100.00
61908;BME280;47864;52.526;19.672;2023-04-19T06:16:15;101126.75;;;6.20;100.00
61908;BME280;47864;52.526;19.672;2023-04-19T06:18:17;101141.38;;;6.36;100.00
61908;BME280;47864;52.526;19.672;2023-04-19T06:20:20;101132.72;;;6.34;100.00
61908;BME280;47864;52.526;19.672;2023-04-19T06:22:22;101138.97;;;6.33;100.00
61908;BME280;47864;52.526;19.672;2023-04-19T06:24:23;101107.06;;;6.25;100.00
61908;BME280;47864;52.526;19.672;2023-04-19T06:26:25;101148.91;;;6.54;100.00
61908;BME280;47864;52.526;19.672;2023-04-19T06:28:26;101146.19;;;6.42;100.00
61908;BME280;47864;52.526;19.672;2023-04-19T06:30:28;101141.66;;;6.44;100.00
61908;BME280;47864;52.526;19.672;2023-04-19T06:32:29;101139.81;;;6.58;100.00
61908;BME280;47864;52.526;19.672;2023-04-19T06:34:31;101132.97;;;6.79;100.00
61908;BME280;47864;52.526;19.672;2023-04-19T06:36:32;101117.50;;;6.51;100.00
61908;BME280;47864;52.526;19.672;2023-04-19T06:38:34;101138.34;;;6.77;100.00
61908;BME280;47864;52.526;19.672;2023-04-19T06:40:35;101141.53;;;6.70;100.00
61908;BME280;47864;52.526;19.672;2023-04-19T06:42:37;101134.75;;;6.55;100.00
61908;BME280;47864;52.526;19.672;2023-04-19T06:44:38;101125.34;;;6.63;100.00
61908;BME280;47864;52.526;19.672;2023-04-19T06:46:40;101107.34;;;6.57;100.00
61908;BME280;47864;52.526;19.672;2023-04-19T06:48:41;101136.06;;;6.73;100.00
61908;BME280;47864;52.526;19.672;2023-04-19T06:50:43;101140.56;;;6.83;100.00
61908;BME280;47864;52.526;19.672;2023-04-19T06:52:44;101135.81;;;6.76;100.00
61908;BME280;47864;52.526;19.672;2023-04-19T06:54:49;101130.78;;;6.73;100.00
61908;BME280;47864;52.526;19.672;2023-04-19T06:56:51;101127.53;;;6.69;100.00
61908;BME280;47864;52.526;19.672;2023-04-19T06:58:52;101130.72;;;6.85;100.00
61908;BME280;47864;52.526;19.672;2023-04-19T07:00:54;101120.25;;;6.84;100.00
61908;BME280;47864;52.526;19.672;2023-04-19T07:02:55;101133.88;;;7.02;100.00
61908;BME280;47864;52.526;19.672;2023-04-19T07:04:57;101127.91;;;7.00;100.00
61908;BME280;47864;52.526;19.672;2023-04-19T07:06:59;101135.72;;;7.12;100.00
61908;BME280;47864;52.526;19.672;2023-04-19T07:09:01;101131.28;;;7.13;100.00
61908;BME280;47864;52.526;19.672;2023-04-19T07:11:04;101126.53;;;6.94;100.00
61908;BME280;47864;52.526;19.672;2023-04-19T07:13:05;101129.81;;;6.98;100.00
61908;BME280;47864;52.526;19.672;2023-04-19T07:15:08;101115.09;;;7.06;100.00
61908;BME280;47864;52.526;19.672;2023-04-19T07:17:09;101114.63;;;7.12;100.00
61908;BME280;47864;52.526;19.672;2023-04-19T07:19:12;101129.97;;;7.18;100.00
61908;BME280;47864;52.526;19.672;2023-04-19T07:21:14;101125.28;;;7.11;100.00
61908;BME280;47864;52.526;19.672;2023-04-19T07:23:15;101126.81;;;7.02;100.00
61908;BME280;47864;52.526;19.672;2023-04-19T07:25:17;101113.34;;;6.94;100.00
61908;BME280;47864;52.526;19.672;2023-04-19T07:27:18;101134.91;;;7.23;100.00
61908;BME280;47864;52.526;19.672;2023-04-19T07:29:20;101119.41;;;7.07;100.00
61908;BME280;47864;52.526;19.672;2023-04-19T07:31:22;101125.31;;;7.22;100.00
61908;BME280;47864;52.526;19.672;2023-04-19T07:33:23;101131.34;;;7.35;100.00
61908;BME280;47864;52.526;19.672;2023-04-19T07:35:28;101132.34;;;7.10;100.00
61908;BME280;47864;52.526;19.672;2023-04-19T07:37:29;101110.88;;;7.04;100.00
61908;BME280;47864;52.526;19.672;2023-04-19T07:39:32;101121.00;;;7.21;100.00
61908;BME280;47864;52.526;19.672;2023-04-19T07:41:33;101127.72;;;7.25;100.00
61908;BME280;47864;52.526;19.672;2023-04-19T07:43:36;101129.28;;;7.28;100.00
61908;BME280;47864;52.526;19.672;2023-04-19T07:45:40;101114.97;;;7.08;100.00
61908;BME280;47864;52.526;19.672;2023-04-19T07:47:41;101113.56;;;7.26;100.00
61908;BME280;47864;52.526;19.672;2023-04-19T07:49:43;101127.38;;;7.30;100.00
61908;BME280;47864;52.526;19.672;2023-04-19T07:51:44;101126.53;;;7.29;100.00
61908;BME280;47864;52.526;19.672;2023-04-19T07:53:46;101130.34;;;7.25;100.00
61908;BME280;47864;52.526;19.672;2023-04-19T07:55:47;101134.34;;;7.31;100.00
61908;BME280;47864;52.526;19.672;2023-04-19T07:57:49;101128.75;;;7.57;100.00
61908;BME280;47864;52.526;19.672;2023-04-19T07:59:50;101126.19;;;7.45;100.00
61908;BME280;47864;52.526;19.672;2023-04-19T08:01:52;101101.22;;;7.15;100.00
61908;BME280;47864;52.526;19.672;2023-04-19T08:03:54;101125.09;;;7.36;100.00
61908;BME280;47864;52.526;19.672;2023-04-19T08:05:56;101108.09;;;7.40;100.00
61908;BME280;47864;52.526;19.672;2023-04-19T08:07:58;101093.66;;;7.33;100.00
61908;BME280;47864;52.526;19.672;2023-04-19T08:10:00;101127.53;;;7.61;100.00
61908;BME280;47864;52.526;19.672;2023-04-19T08:12:01;101129.59;;;7.69;100.00
61908;BME280;47864;52.526;19.672;2023-04-19T08:14:03;101128.25;;;7.75;100.00
61908;BME280;47864;52.526;19.672;2023-04-19T08:16:22;101128.41;;;7.73;100.00
61908;BME280;47864;52.526;19.672;2023-04-19T08:18:44;101134.63;;;7.61;100.00
61908;BME280;47864;52.526;19.672;2023-04-19T08:20:46;101125.88;;;7.72;100.00
61908;BME280;47864;52.526;19.672;2023-04-19T08:22:47;101120.84;;;7.80;100.00
61908;BME280;47864;52.526;19.672;2023-04-19T08:24:49;101131.63;;;7.66;100.00
61908;BME280;47864;52.526;19.672;2023-04-19T08:26:52;101126.47;;;7.86;100.00
61908;BME280;47864;52.526;19.672;2023-04-19T08:28:53;101125.50;;;7.98;100.00
61908;BME280;47864;52.526;19.672;2023-04-19T08:30:57;101126.47;;;7.64;100.00
61908;BME280;47864;52.526;19.672;2023-04-19T08:32:59;101105.81;;;7.69;100.00
61908;BME280;47864;52.526;19.672;2023-04-19T08:35:00;101120.72;;;7.70;100.00
61908;BME280;47864;52.526;19.672;2023-04-19T08:37:02;101107.16;;;7.63;100.00
61908;BME280;47864;52.526;19.672;2023-04-19T08:39:05;101123.81;;;7.86;100.00
61908;BME280;47864;52.526;19.672;2023-04-19T08:41:21;101118.31;;;7.78;100.00
61908;BME280;47864;52.526;19.672;2023-04-19T08:43:24;101124.19;;;7.93;100.00
61908;BME280;47864;52.526;19.672;2023-04-19T08:45:26;101119.97;;;8.13;100.00
61908;BME280;47864;52.526;19.672;2023-04-19T08:47:31;101126.22;;;8.00;100.00
61908;BME280;47864;52.526;19.672;2023-04-19T08:49:35;101109.50;;;8.11;100.00
61908;BME280;47864;52.526;19.672;2023-04-19T08:51:37;101123.69;;;8.21;100.00
61908;BME280;47864;52.526;19.672;2023-04-19T08:53:40;101121.16;;;8.09;100.00
61908;BME280;47864;52.526;19.672;2023-04-19T08:55:42;101125.50;;;7.98;100.00
61908;BME280;47864;52.526;19.672;2023-04-19T08:58:02;101132.44;;;8.11;100.00
61908;BME280;47864;52.526;19.672;2023-04-19T09:00:06;101127.41;;;8.19;100.00
61908;BME280;47864;52.526;19.672;2023-04-19T09:02:08;101135.31;;;8.08;100.00
61908;BME280;47864;52.526;19.672;2023-04-19T09:04:09;101103.66;;;7.74;100.00
61908;BME280;47864;52.526;19.672;2023-04-19T09:06:37;101116.03;;;7.96;100.00
61908;BME280;47864;52.526;19.672;2023-04-19T09:08:39;101137.97;;;8.08;100.00
61908;BME280;47864;52.526;19.672;2023-04-19T09:10:51;101109.28;;;8.03;100.00
61908;BME280;47864;52.526;19.672;2023-04-19T09:13:04;101128.00;;;8.33;100.00
61908;BME280;47864;52.526;19.672;2023-04-19T09:15:07;101124.53;;;8.22;100.00
61908;BME280;47864;52.526;19.672;2023-04-19T09:17:12;101108.91;;;8.19;100.00
61908;BME280;47864;52.526;19.672;2023-04-19T09:19:17;101125.00;;;8.16;100.00
61908;BME280;47864;52.526;19.672;2023-04-19T09:21:29;101120.06;;;8.22;100.00
61908;BME280;47864;52.526;19.672;2023-04-19T09:23:31;101115.50;;;8.47;100.00
61908;BME280;47864;52.526;19.672;2023-04-19T09:25:32;101108.41;;;8.36;100.00
61908;BME280;47864;52.526;19.672;2023-04-19T09:27:53;101120.91;;;8.45;100.00
61908;BME280;47864;52.526;19.672;2023-04-19T09:29:56;101121.03;;;8.32;100.00
61908;BME280;47864;52.526;19.672;2023-04-19T09:31:58;101104.13;;;8.13;100.00
61908;BME280;47864;52.526;19.672;2023-04-19T09:34:14;101126.56;;;8.18;100.00
61908;BME280;47864;52.526;19.672;2023-04-19T09:36:29;101114.91;;;8.32;100.00
61908;BME280;47864;52.526;19.672;2023-04-19T09:38:48;101117.78;;;8.29;100.00
61908;BME280;47864;52.526;19.672;2023-04-19T09:40:50;101093.50;;;8.24;100.00
61908;BME280;47864;52.526;19.672;2023-04-19T09:42:51;101108.13;;;8.50;100.00
61908;BME280;47864;52.526;19.672;2023-04-19T09:44:56;101118.22;;;8.56;100.00
61908;BME280;47864;52.526;19.672;2023-04-19T09:47:01;101121.09;;;8.64;100.00
61908;BME280;47864;52.526;19.672;2023-04-19T09:49:22;101115.72;;;8.75;100.00
61908;BME280;47864;52.526;19.672;2023-04-19T09:51:48;101102.16;;;8.80;100.00
61908;BME280;47864;52.526;19.672;2023-04-19T09:53:50;101110.19;;;8.78;100.00
61908;BME280;47864;52.526;19.672;2023-04-19T09:55:53;101104.59;;;8.93;100.00
61908;BME280;47864;52.526;19.672;2023-04-19T09:58:02;101112.34;;;8.85;100.00
61908;BME280;47864;52.526;19.672;2023-04-19T10:00:04;101104.06;;;8.78;100.00
61908;BME280;47864;52.526;19.672;2023-04-19T10:02:06;101096.69;;;8.82;100.00
61908;BME280;47864;52.526;19.672;2023-04-19T10:04:14;101115.81;;;8.85;100.00
61908;BME280;47864;52.526;19.672;2023-04-19T10:06:23;101105.63;;;8.81;100.00
61908;BME280;47864;52.526;19.672;2023-04-19T10:08:44;101117.78;;;9.04;100.00
61908;BME280;47864;52.526;19.672;2023-04-19T10:10:47;101120.66;;;9.01;100.00
61908;BME280;47864;52.526;19.672;2023-04-19T10:12:52;101100.47;;;9.00;100.00
61908;BME280;47864;52.526;19.672;2023-04-19T10:14:57;101118.53;;;9.15;100.00
61908;BME280;47864;52.526;19.672;2023-04-19T10:17:16;101097.09;;;8.98;100.00
61908;BME280;47864;52.526;19.672;2023-04-19T10:19:19;101117.25;;;9.10;100.00
61908;BME280;47864;52.526;19.672;2023-04-19T10:21:22;101103.56;;;8.84;100.00
61908;BME280;47864;52.526;19.672;2023-04-19T10:23:24;101111.19;;;8.98;100.00
61908;BME280;47864;52.526;19.672;2023-04-19T10:25:29;101102.47;;;9.07;100.00
61908;BME280;47864;52.526;19.672;2023-04-19T10:27:33;101101.78;;;9.05;100.00
61908;BME280;47864;52.526;19.672;2023-04-19T10:29:53;101119.25;;;9.18;100.00
61908;BME280;47864;52.526;19.672;2023-04-19T10:31:55;101107.44;;;9.01;100.00
61908;BME280;47864;52.526;19.672;2023-04-19T10:33:57;101109.75;;;9.15;100.00